Time;durP1;ratioP1;P1;durP2;ratioP2;P2;SDS_P1;SDS_P2;PMS_P1;PMS_P2;Temp;Humidity;BMP_temperature;BMP_pressure;BME280_temperature;BME280_humidity;BME280_pressure;Samples;Min_cycle;Max_cycle;Signal;HPM_P1;HPM_P2
2022/04/08 00:01:56;;;;;;;;;16.40;15.00;;;;;12.96;57.11;97907.81;5030538;28;9650;-72
2022/04/08 00:04:25;;;;;;;;;17.20;17.00;;;;;12.99;57.55;97917.34;5030410;28;8969;-72
2022/04/08 00:06:55;;;;;;;;;21.00;19.40;;;;;13.07;56.82;97921.38;5030623;28;8849;-74
2022/04/08 00:09:24;;;;;;;;;17.80;16.20;;;;;13.09;56.68;97920.47;5030360;28;8986;-73
2022/04/08 00:11:53;;;;;;;;;14.60;14.40;;;;;13.03;57.26;97924.16;5045670;28;9031;-73
2022/04/08 00:14:21;;;;;;;;;17.20;16.20;;;;;12.89;58.04;97929.88;5014416;28;8885;-73
2022/04/08 00:16:50;;;;;;;;;20.00;17.80;;;;;13.08;56.38;97937.94;5049107;28;9083;-73
2022/04/08 00:19:18;;;;;;;;;18.20;16.20;;;;;12.94;57.46;97933.19;5066569;28;8820;-71
2022/04/08 00:21:49;;;;;;;;;16.20;16.20;;;;;13.07;56.79;97933.59;5066853;28;8936;-73
2022/04/08 00:24:19;;;;;;;;;22.80;19.80;;;;;13.16;56.66;97922.78;5066966;28;8913;-72
2022/04/08 00:26:48;;;;;;;;;18.80;16.60;;;;;13.17;56.24;97916.63;5066873;28;8828;-74
2022/04/08 00:29:17;;;;;;;;;18.00;15.60;;;;;13.16;56.66;97920.19;5066505;28;8859;-72
2022/04/08 00:31:46;;;;;;;;;15.80;13.40;;;;;12.99;57.26;97920.81;5066289;28;8866;-72
2022/04/08 00:34:15;;;;;;;;;16.80;14.60;;;;;12.92;57.56;97914.06;5017440;28;8840;-73
2022/04/08 00:36:43;;;;;;;;;18.20;16.00;;;;;12.94;57.30;97933.19;5066035;28;8860;-72
2022/04/08 00:39:13;;;;;;;;;22.00;19.00;;;;;12.97;56.51;97935.69;5066847;28;9039;-72
2022/04/08 00:41:43;;;;;;;;;13.40;13.20;;;;;12.87;56.81;97939.53;5065875;28;8852;-72
2022/04/08 00:44:11;;;;;;;;;17.00;15.60;;;;;13.01;56.57;97937.28;5046782;28;8846;-73
2022/04/08 00:46:40;;;;;;;;;15.80;15.80;;;;;13.12;55.92;97947.38;5057490;28;8852;-74
2022/04/08 00:49:09;;;;;;;;;15.80;15.80;;;;;13.17;54.76;97939.34;5066492;28;8831;-72
2022/04/08 00:51:38;;;;;;;;;18.20;18.20;;;;;13.17;55.40;97937.56;5049122;28;8853;-72
2022/04/08 00:54:07;;;;;;;;;15.40;14.20;;;;;13.28;54.66;97939.81;5047730;28;8963;-74
2022/04/08 00:56:37;;;;;;;;;17.60;15.80;;;;;13.31;54.43;97938.84;5048868;28;8841;-75
2022/04/08 00:59:07;;;;;;;;;13.80;11.00;;;;;13.23;54.35;97939.09;5049064;28;8859;-74
2022/04/08 01:01:36;;;;;;;;;15.60;15.60;;;;;13.24;54.45;97938.22;5036548;28;8844;-74
2022/04/08 01:04:06;;;;;;;;;15.60;14.80;;;;;13.15;53.77;97942.00;5028948;28;8894;-76
2022/04/08 01:06:34;;;;;;;;;18.60;16.40;;;;;13.09;54.35;97941.41;5029004;28;8893;-75
2022/04/08 01:09:03;;;;;;;;;15.60;14.20;;;;;13.11;53.85;97943.03;5027572;28;8868;-74
2022/04/08 01:11:32;;;;;;;;;15.60;15.60;;;;;13.24;53.47;97940.84;5027285;28;8867;-73
2022/04/08 01:14:09;;;;;;;;;17.40;15.60;;;;;13.39;53.48;97944.69;5010408;28;8970;-73
2022/04/08 01:16:38;;;;;;;;;16.80;14.60;;;;;13.45;53.44;97947.91;5027347;28;8856;-73
2022/04/08 01:19:07;;;;;;;;;17.00;17.00;;;;;13.51;52.76;97949.44;5027425;28;8843;-74
2022/04/08 01:21:36;;;;;;;;;17.00;16.00;;;;;13.57;52.88;97958.81;5028788;28;8859;-74
2022/04/08 01:24:11;;;;;;;;;15.60;15.60;;;;;13.60;53.02;97954.31;5027413;28;8848;-73
2022/04/08 01:26:41;;;;;;;;;17.40;14.60;;;;;13.66;52.72;97953.22;5029467;28;9028;-74
2022/04/08 01:29:10;;;;;;;;;16.20;14.60;;;;;13.69;52.05;97955.75;5031493;28;8867;-74
2022/04/08 01:31:43;;;;;;;;;12.80;12.20;;;;;13.72;51.81;97958.22;5032614;28;9080;-73
2022/04/08 01:34:12;;;;;;;;;15.80;13.40;;;;;13.70;52.44;97960.06;5033043;28;8866;-75
2022/04/08 01:36:41;;;;;;;;;15.80;15.00;;;;;13.74;52.23;97960.78;4981661;28;8894;-73
2022/04/08 01:39:09;;;;;;;;;19.00;17.80;;;;;13.67;51.52;97961.94;5031582;28;8894;-73
2022/04/08 01:41:38;;;;;;;;;9.00;8.40;;;;;13.64;51.70;97966.38;5031533;28;8870;-77
2022/04/08 01:44:08;;;;;;;;;15.80;15.40;;;;;13.69;51.81;97968.00;5032501;28;8839;-77
2022/04/08 01:46:37;;;;;;;;;15.80;13.60;;;;;13.68;52.00;97974.13;5032217;28;8859;-73
2022/04/08 01:49:06;;;;;;;;;13.00;12.80;;;;;13.70;51.57;97974.94;5031314;28;8956;-76
2022/04/08 01:51:34;;;;;;;;;13.40;12.20;;;;;13.72;51.81;97971.31;5032478;28;8864;-74
2022/04/08 01:54:03;;;;;;;;;16.40;16.20;;;;;13.71;51.47;97969.63;4998255;28;8979;-75
2022/04/08 01:56:32;;;;;;;;;18.20;17.40;;;;;13.72;51.34;97967.84;5032190;28;8852;-76
2022/04/08 01:59:00;;;;;;;;;16.20;12.80;;;;;13.72;51.35;97970.47;5031999;28;8962;-73
2022/04/08 02:01:30;;;;;;;;;14.40;13.20;;;;;13.72;51.47;97979.19;5032218;28;8890;-75
2022/04/08 02:03:59;;;;;;;;;15.80;15.60;;;;;13.75;50.86;97973.00;5032381;28;8943;-72
2022/04/08 02:06:28;;;;;;;;;16.00;15.00;;;;;13.73;51.21;97974.81;5032262;28;8840;-75
2022/04/08 02:08:57;;;;;;;;;15.80;15.80;;;;;13.73;51.35;97974.81;5032508;28;8859;-72
2022/04/08 02:11:26;;;;;;;;;14.80;14.60;;;;;13.76;51.08;97972.06;4997824;28;8972;-75
2022/04/08 02:13:54;;;;;;;;;18.40;16.40;;;;;13.73;51.18;97980.06;5032002;28;8868;-75
2022/04/08 02:16:23;;;;;;;;;14.20;12.40;;;;;13.74;50.86;97981.75;5037547;28;8922;-73
2022/04/08 02:18:53;;;;;;;;;11.80;11.60;;;;;13.74;50.69;97979.13;5051777;28;8845;-75
2022/04/08 02:21:21;;;;;;;;;16.60;16.60;;;;;13.73;50.97;97986.13;5050041;28;8864;-73
2022/04/08 02:23:51;;;;;;;;;14.00;12.80;;;;;13.66;50.96;97987.28;5051484;28;8962;-72
2022/04/08 02:26:20;;;;;;;;;15.20;15.20;;;;;13.63;50.79;97983.03;5051691;28;8875;-73
2022/04/08 02:28:49;;;;;;;;;18.00;14.40;;;;;13.64;51.25;97982.09;5049420;28;8844;-76
2022/04/08 02:31:17;;;;;;;;;15.60;14.00;;;;;13.63;50.40;97985.66;5051739;28;8861;-72
2022/04/08 02:33:46;;;;;;;;;12.80;10.60;;;;;13.66;50.85;97995.13;5051425;28;8853;-73
2022/04/08 02:36:16;;;;;;;;;17.40;15.60;;;;;13.62;51.04;97993.56;5051421;28;9626;-74
2022/04/08 02:38:44;;;;;;;;;14.40;11.60;;;;;13.65;50.80;97996.91;5031327;28;8857;-72
2022/04/08 02:41:13;;;;;;;;;13.80;13.80;;;;;13.68;50.01;97992.47;5051139;28;9697;-73
2022/04/08 02:43:41;;;;;;;;;17.00;15.40;;;;;13.63;50.61;97988.25;5050982;28;8970;-76
2022/04/08 02:46:10;;;;;;;;;15.60;15.00;;;;;13.65;49.96;97990.84;5051489;28;8853;-76
2022/04/08 02:48:39;;;;;;;;;16.00;14.80;;;;;13.62;50.21;97991.78;5049559;28;8886;-73
2022/04/08 02:51:07;;;;;;;;;14.40;14.40;;;;;13.60;50.09;98001.47;5051256;28;8848;-76
2022/04/08 02:53:37;;;;;;;;;15.80;15.40;;;;;13.63;50.21;98003.13;5051292;28;8847;-73
2022/04/08 02:56:06;;;;;;;;;17.20;13.80;;;;;13.61;50.58;98007.56;5051116;28;8852;-72
2022/04/08 02:58:35;;;;;;;;;19.40;18.60;;;;;13.58;50.33;98008.53;5048145;28;9015;-73
2022/04/08 03:01:04;;;;;;;;;1.40;0.20;;;;;13.57;50.51;98003.34;5048125;28;8862;-73
2022/04/08 03:03:33;;;;;;;;;15.40;15.40;;;;;13.57;50.31;98001.59;5015392;28;8888;-74
2022/04/08 03:06:02;;;;;;;;;17.20;15.80;;;;;13.57;50.05;98004.22;5031360;28;8881;-74
2022/04/08 03:08:30;;;;;;;;;16.00;15.40;;;;;13.60;50.32;98008.47;5041887;28;8824;-74
2022/04/08 03:11:01;;;;;;;;;19.20;15.40;;;;;13.54;49.36;98012.19;5067526;28;8864;-74
2022/04/08 03:13:30;;;;;;;;;17.00;17.00;;;;;13.52;50.22;98014.00;5067635;28;8836;-75
2022/04/08 03:15:58;;;;;;;;;16.00;15.60;;;;;13.53;50.29;98020.94;5050838;28;8848;-75
2022/04/08 03:18:27;;;;;;;;;14.00;14.00;;;;;13.52;50.04;98021.00;5067815;28;8836;-74
2022/04/08 03:20:56;;;;;;;;;10.60;8.60;;;;;13.54;50.23;98027.91;5047514;28;8838;-75
2022/04/08 03:23:24;;;;;;;;;21.00;16.60;;;;;13.56;49.94;98026.06;5030953;28;8871;-73
2022/04/08 03:25:53;;;;;;;;;15.40;14.80;;;;;13.57;49.20;98034.78;5012478;28;8868;-72
2022/04/08 03:28:23;;;;;;;;;14.20;14.20;;;;;13.61;49.58;98034.63;5028709;28;9669;-73
2022/04/08 03:30:52;;;;;;;;;16.00;15.00;;;;;13.59;49.59;98032.94;5029932;28;8883;-73
2022/04/08 03:33:20;;;;;;;;;16.60;15.40;;;;;13.58;50.02;98050.44;5012267;28;8887;-74
2022/04/08 03:35:49;;;;;;;;;16.40;13.00;;;;;13.59;50.11;98054.78;5028542;28;8851;-73
2022/04/08 03:38:17;;;;;;;;;14.00;12.60;;;;;13.59;49.74;98054.78;5029841;28;9673;-73
2022/04/08 03:40:47;;;;;;;;;12.60;12.00;;;;;13.59;49.31;98057.41;5030070;28;8848;-77
2022/04/08 03:43:15;;;;;;;;;13.40;11.80;;;;;13.58;49.52;98052.22;5028718;28;8881;-72
2022/04/08 03:45:45;;;;;;;;;14.80;13.80;;;;;13.60;49.54;98059.09;5028476;28;8864;-73
2022/04/08 03:48:15;;;;;;;;;15.20;12.00;;;;;13.61;49.69;98067.78;5029636;28;9633;-74
2022/04/08 03:50:47;;;;;;;;;12.20;12.20;;;;;13.61;49.75;98070.41;5029349;28;8859;-72
2022/04/08 03:53:16;;;;;;;;;16.80;16.20;;;;;13.64;49.54;98065.06;5028402;28;8846;-73
2022/04/08 03:55:44;;;;;;;;;15.00;13.60;;;;;13.63;49.69;98069.47;5044835;28;9637;-74
2022/04/08 03:58:12;;;;;;;;;16.60;15.60;;;;;13.67;49.04;98077.19;5010873;28;8879;-73
2022/04/08 04:00:41;;;;;;;;;17.60;14.20;;;;;13.64;48.85;98070.31;5028203;28;9569;-72
2022/04/08 04:03:11;;;;;;;;;16.80;15.40;;;;;13.62;49.16;98075.59;5028011;28;8852;-74
2022/04/08 04:05:44;;;;;;;;;13.80;13.80;;;;;13.64;49.58;98081.63;4994310;28;8928;-73
2022/04/08 04:08:18;;;;;;;;;13.40;9.80;;;;;13.65;49.53;98078.13;5010940;28;8847;-72
2022/04/08 04:10:47;;;;;;;;;16.60;15.80;;;;;13.65;48.90;98080.75;5044344;28;8871;-75
2022/04/08 04:13:16;;;;;;;;;12.80;10.40;;;;;13.61;48.83;98075.66;5028915;28;8946;-77
2022/04/08 04:15:44;;;;;;;;;17.80;16.20;;;;;13.61;49.18;98083.50;5029424;28;8876;-75
2022/04/08 04:18:16;;;;;;;;;14.80;14.00;;;;;13.62;49.20;98086.06;5027687;28;8859;-72
2022/04/08 04:20:44;;;;;;;;;12.60;10.40;;;;;13.62;49.30;98087.84;5027681;28;8883;-73
2022/04/08 04:23:13;;;;;;;;;15.60;15.60;;;;;13.67;48.38;98092.91;5028269;28;8839;-73
2022/04/08 04:25:41;;;;;;;;;19.60;18.20;;;;;13.67;48.75;98098.16;5029071;28;8847;-76
2022/04/08 04:28:10;;;;;;;;;16.40;16.40;;;;;13.68;49.17;98099.88;5028789;28;9674;-73
2022/04/08 04:30:39;;;;;;;;;16.80;16.80;;;;;13.66;48.31;98107.78;5027827;28;8990;-73
2022/04/08 04:33:08;;;;;;;;;16.60;15.60;;;;;13.73;48.97;98118.91;5010658;28;8867;-74
2022/04/08 04:35:39;;;;;;;;;14.60;13.00;;;;;13.75;48.26;98122.31;5060568;28;8913;-73
2022/04/08 04:38:08;;;;;;;;;15.20;13.60;;;;;13.80;48.79;98118.63;5027684;28;9606;-74
2022/04/08 04:40:36;;;;;;;;;18.20;16.60;;;;;13.82;48.09;98118.56;5047137;28;8845;-74
2022/04/08 04:43:05;;;;;;;;;18.40;16.80;;;;;13.88;47.78;98123.56;5047125;28;8877;-74
2022/04/08 04:45:34;;;;;;;;;15.20;14.80;;;;;13.85;48.26;98118.44;5047005;28;8860;-73
2022/04/08 04:48:03;;;;;;;;;16.00;14.20;;;;;13.92;48.28;98130.41;5043093;28;8929;-73
2022/04/08 04:50:32;;;;;;;;;21.40;19.60;;;;;14.01;47.91;98140.56;5045857;28;8871;-75
2022/04/08 04:53:02;;;;;;;;;15.40;15.00;;;;;14.08;47.98;98145.56;5048243;28;8853;-71
2022/04/08 04:55:31;;;;;;;;;16.40;14.80;;;;;14.16;47.31;98146.16;5040196;28;8894;-74
2022/04/08 04:58:00;;;;;;;;;14.40;13.60;;;;;14.22;47.19;98149.38;5027913;28;9080;-72
2022/04/08 05:00:29;;;;;;;;;15.60;15.00;;;;;14.29;47.12;98150.00;5027802;28;8855;-74
2022/04/08 05:02:57;;;;;;;;;14.00;12.00;;;;;14.37;46.60;98157.59;5040365;28;9000;-74
2022/04/08 05:05:26;;;;;;;;;16.60;16.60;;;;;14.41;46.83;98165.25;5047473;28;8857;-73
2022/04/08 05:07:55;;;;;;;;;19.60;18.00;;;;;14.49;46.58;98162.34;5047753;28;8843;-73
2022/04/08 05:10:26;;;;;;;;;18.40;17.40;;;;;14.54;46.17;98176.16;5015021;28;8856;-73
2022/04/08 05:12:54;;;;;;;;;17.60;17.60;;;;;14.60;46.16;98180.34;5047161;28;9084;-74
2022/04/08 05:15:23;;;;;;;;;17.20;17.20;;;;;14.66;45.64;98187.97;5064414;28;8888;-78
2022/04/08 05:17:52;;;;;;;;;19.00;15.80;;;;;14.76;45.29;98196.31;5047243;28;8848;-73
2022/04/08 05:20:21;;;;;;;;;21.20;18.60;;;;;14.87;45.43;98201.16;5062818;28;8868;-77
2022/04/08 05:22:49;;;;;;;;;17.60;17.00;;;;;14.84;44.54;98211.75;5065000;28;8934;-77
2022/04/08 05:25:18;;;;;;;;;18.20;16.00;;;;;15.00;44.49;98218.13;5064737;28;8836;-73
2022/04/08 05:27:48;;;;;;;;;18.20;17.00;;;;;15.15;44.80;98222.75;5048019;28;8859;-78
2022/04/08 05:30:17;;;;;;;;;21.20;18.60;;;;;15.30;44.62;98229.16;5062047;28;8866;-74
2022/04/08 05:32:46;;;;;;;;;18.80;17.60;;;;;15.44;44.36;98230.34;5047370;28;9546;-73
2022/04/08 05:35:16;;;;;;;;;15.60;15.00;;;;;15.55;43.66;98238.66;5061534;28;8983;-76
2022/04/08 05:37:47;;;;;;;;;12.60;12.60;;;;;15.67;43.68;98248.66;5031387;28;9098;-73
2022/04/08 05:40:17;;;;;;;;;15.20;14.80;;;;;15.78;43.26;98245.59;5047298;28;8879;-78
2022/04/08 05:42:48;;;;;;;;;21.40;18.00;;;;;15.88;43.03;98251.28;5047006;28;8837;-72
2022/04/08 05:45:18;;;;;;;;;19.00;18.40;;;;;16.01;42.85;98247.25;5044185;28;9591;-74
2022/04/08 05:47:49;;;;;;;;;18.20;16.40;;;;;16.11;42.65;98256.44;4979400;28;9621;-75
2022/04/08 05:50:19;;;;;;;;;18.00;16.40;;;;;16.21;42.29;98259.50;5044128;28;8853;-72
2022/04/08 05:52:48;;;;;;;;;19.00;17.80;;;;;16.31;42.31;98266.09;5045847;28;8849;-73
2022/04/08 05:55:17;;;;;;;;;20.00;16.60;;;;;16.35;41.46;98275.53;5039497;28;8836;-73
2022/04/08 05:57:46;;;;;;;;;16.80;15.20;;;;;16.46;41.99;98274.19;5025632;28;8910;-71
2022/04/08 06:00:18;;;;;;;;;22.00;19.60;;;;;16.55;41.73;98282.53;5026041;28;8965;-73
2022/04/08 06:02:48;;;;;;;;;19.20;18.40;;;;;16.66;41.47;98284.69;5027168;28;8871;-72
2022/04/08 06:05:18;;;;;;;;;21.40;19.00;;;;;16.76;41.74;98293.84;5029923;28;8848;-71
2022/04/08 06:07:48;;;;;;;;;20.40;18.20;;;;;16.87;40.99;98289.91;5026660;28;9627;-73
2022/04/08 06:10:18;;;;;;;;;19.00;17.60;;;;;16.99;40.49;98294.59;5034041;28;9006;-72
2022/04/08 06:12:47;;;;;;;;;21.00;16.60;;;;;17.13;40.13;98294.81;5046286;28;8938;-72
2022/04/08 06:15:18;;;;;;;;;13.80;13.40;;;;;17.22;40.02;98301.44;5047891;28;8849;-73
2022/04/08 06:17:48;;;;;;;;;15.20;14.80;;;;;17.40;40.04;98310.22;5049227;28;8975;-74
2022/04/08 06:20:17;;;;;;;;;13.40;13.00;;;;;17.47;39.77;98311.63;5036987;28;8942;-72
2022/04/08 06:22:47;;;;;;;;;16.60;15.20;;;;;17.64;39.57;98317.88;5051578;28;8869;-71
2022/04/08 06:25:19;;;;;;;;;18.40;16.40;;;;;17.64;38.62;98323.16;5049380;28;8868;-72
2022/04/08 06:27:56;;;;;;;;;17.60;17.40;;;;;17.61;38.08;98333.84;5048137;28;9036;-73
2022/04/08 06:30:27;;;;;;;;;17.60;16.00;;;;;17.71;38.73;98343.00;5050468;28;8978;-75
2022/04/08 06:32:55;;;;;;;;;14.60;14.40;;;;;17.65;38.28;98344.13;5050351;28;9007;-70
2022/04/08 06:35:24;;;;;;;;;14.60;14.60;;;;;17.77;38.41;98349.75;5046986;28;8860;-76
2022/04/08 06:37:59;;;;;;;;;12.80;12.80;;;;;17.86;38.07;98359.88;5045104;28;8849;-73
2022/04/08 06:40:28;;;;;;;;;15.60;14.40;;;;;18.00;38.59;98359.22;5038883;28;9563;-75
2022/04/08 06:42:59;;;;;;;;;12.20;11.20;;;;;18.22;38.11;98358.97;5048128;28;8853;-77
2022/04/08 06:45:29;;;;;;;;;14.60;14.60;;;;;18.41;36.88;98361.50;5014608;28;8883;-76
2022/04/08 06:47:58;;;;;;;;;11.20;10.20;;;;;17.78;37.13;98370.78;5048254;28;8844;-76
2022/04/08 06:50:27;;;;;;;;;13.00;12.80;;;;;17.89;36.56;98375.56;5045156;28;8852;-74
2022/04/08 06:52:59;;;;;;;;;10.60;10.60;;;;;17.92;36.63;98376.25;5045314;28;9055;-76
2022/04/08 06:55:28;;;;;;;;;11.60;10.20;;;;;17.45;37.41;98379.38;5033890;28;8909;-75
2022/04/08 06:57:59;;;;;;;;;10.00;10.00;;;;;17.21;37.42;98373.47;5019508;28;8882;-76
2022/04/08 07:00:30;;;;;;;;;7.00;4.80;;;;;16.87;37.16;98385.56;5062022;28;8910;-75
2022/04/08 07:02:59;;;;;;;;;11.60;11.40;;;;;17.26;37.19;98387.31;5086459;28;8880;-74
2022/04/08 07:05:29;;;;;;;;;9.00;7.00;;;;;16.95;36.83;98385.22;5067589;28;8912;-73
2022/04/08 07:07:58;;;;;;;;;9.00;9.00;;;;;17.25;36.89;98382.09;5052275;28;8920;-74
2022/04/08 07:10:27;;;;;;;;;9.80;8.80;;;;;17.34;37.10;98395.69;5062063;28;8840;-75
2022/04/08 07:12:55;;;;;;;;;9.80;9.00;;;;;17.70;36.52;98399.31;5066394;28;8854;-72
2022/04/08 07:15:24;;;;;;;;;11.40;9.60;;;;;17.69;36.59;98394.94;5074705;28;8865;-74
2022/04/08 07:17:54;;;;;;;;;6.20;6.20;;;;;17.02;36.78;98398.97;5083184;28;8861;-72
2022/04/08 07:20:23;;;;;;;;;8.40;8.40;;;;;16.61;37.62;98407.72;5078177;28;9572;-73
2022/04/08 07:22:52;;;;;;;;;9.40;7.60;;;;;16.30;38.23;98409.06;5045675;28;8842;-73
2022/04/08 07:25:21;;;;;;;;;6.80;6.20;;;;;16.18;39.07;98413.06;5029183;28;9000;-71
2022/04/08 07:27:51;;;;;;;;;7.00;7.00;;;;;16.39;39.09;98420.97;5026634;28;8846;-72
2022/04/08 07:30:22;;;;;;;;;9.00;9.00;;;;;16.51;39.33;98415.16;5029601;28;9615;-71
2022/04/08 07:32:52;;;;;;;;;10.00;8.00;;;;;16.93;38.45;98421.28;5013303;28;8846;-74
2022/04/08 07:35:25;;;;;;;;;10.00;9.20;;;;;16.74;38.03;98435.22;5006799;28;8999;-71
2022/04/08 07:37:54;;;;;;;;;8.60;8.00;;;;;16.91;39.00;98434.53;5006103;28;8858;-72
2022/04/08 07:40:25;;;;;;;;;9.40;8.80;;;;;16.84;38.32;98443.63;4973292;28;9004;-72
2022/04/08 07:42:54;;;;;;;;;7.80;7.80;;;;;16.68;38.77;98453.09;4990380;28;8889;-73
2022/04/08 07:45:27;;;;;;;;;8.40;8.40;;;;;16.70;38.64;98452.09;4990604;28;8874;-72
2022/04/08 07:47:58;;;;;;;;;8.40;7.40;;;;;16.83;37.71;98451.59;5006483;28;8981;-71
2022/04/08 07:50:30;;;;;;;;;8.20;8.00;;;;;16.38;38.68;98458.72;5005898;28;10174;-72
2022/04/08 07:52:58;;;;;;;;;8.00;8.00;;;;;16.21;39.08;98469.09;4989154;28;8932;-71
2022/04/08 07:55:27;;;;;;;;;8.80;8.80;;;;;15.92;39.70;98469.34;5006079;28;8894;-73
2022/04/08 07:57:56;;;;;;;;;9.40;9.40;;;;;15.95;39.97;98468.34;4990454;28;8874;-72
2022/04/08 08:00:27;;;;;;;;;11.00;10.60;;;;;15.92;40.08;98474.59;5004715;28;9005;-73
2022/04/08 08:02:56;;;;;;;;;10.40;9.40;;;;;15.85;39.86;98473.13;5048247;28;8884;-72
2022/04/08 08:05:26;;;;;;;;;16.40;14.60;;;;;15.84;40.61;98479.31;5043882;28;8844;-73
2022/04/08 08:07:57;;;;;;;;;12.20;12.20;;;;;16.04;40.22;98483.75;5035964;28;8970;-71
2022/04/08 08:10:28;;;;;;;;;15.00;12.00;;;;;16.15;40.05;98485.97;5045541;28;8837;-71
2022/04/08 08:12:57;;;;;;;;;12.60;11.40;;;;;16.43;39.47;98490.97;5046833;28;8865;-70
2022/04/08 08:15:27;;;;;;;;;9.60;9.60;;;;;16.44;39.89;98492.66;5046275;28;8857;-70
2022/04/08 08:17:57;;;;;;;;;11.80;11.80;;;;;16.33;39.79;98495.75;5030120;28;8852;-70
2022/04/08 08:20:26;;;;;;;;;9.40;9.40;;;;;16.29;40.22;98499.41;5038284;28;8875;-71
2022/04/08 08:22:56;;;;;;;;;14.20;11.80;;;;;16.07;40.26;98506.47;5042648;28;8875;-73
2022/04/08 08:25:25;;;;;;;;;12.60;10.80;;;;;16.09;40.91;98504.63;5027680;28;8880;-69
2022/04/08 08:27:56;;;;;;;;;9.00;9.00;;;;;16.13;40.41;98504.44;5037082;28;8858;-73
2022/04/08 08:30:24;;;;;;;;;12.00;11.00;;;;;16.24;40.50;98501.38;5046985;28;8869;-71
2022/04/08 08:32:53;;;;;;;;;12.00;12.00;;;;;16.27;40.84;98509.13;5028583;28;8871;-74
2022/04/08 08:35:22;;;;;;;;;10.80;9.60;;;;;16.55;39.98;98508.84;5043589;28;8861;-74
2022/04/08 08:37:56;;;;;;;;;10.60;10.60;;;;;16.50;40.36;98509.97;5044652;28;8930;-71
2022/04/08 08:40:24;;;;;;;;;11.40;10.20;;;;;16.44;40.89;98523.38;5012565;28;8869;-70
2022/04/08 08:42:53;;;;;;;;;9.60;8.20;;;;;16.43;40.16;98516.44;5047279;28;8982;-73
2022/04/08 08:45:22;;;;;;;;;14.60;13.40;;;;;16.23;41.24;98514.59;5044791;28;8845;-73
2022/04/08 08:47:52;;;;;;;;;9.80;9.40;;;;;16.64;40.86;98519.94;5045749;28;8838;-70
2022/04/08 08:50:20;;;;;;;;;13.40;11.60;;;;;17.02;39.91;98520.13;5012766;28;8962;-70
2022/04/08 08:52:50;;;;;;;;;8.80;8.20;;;;;17.01;40.00;98521.03;5046366;28;8856;-70
2022/04/08 08:55:21;;;;;;;;;11.20;10.20;;;;;17.00;39.72;98519.34;5044361;28;8868;-71
2022/04/08 08:57:51;;;;;;;;;8.20;7.40;;;;;16.86;39.90;98525.16;5045394;28;8883;-73
2022/04/08 09:00:23;;;;;;;;;11.00;9.80;;;;;16.83;40.42;98520.06;5046497;28;8876;-73
2022/04/08 09:02:52;;;;;;;;;9.20;9.20;;;;;16.97;39.94;98532.63;5045802;28;9643;-71
2022/04/08 09:05:23;;;;;;;;;8.40;7.20;;;;;17.02;39.58;98531.50;5049030;28;8877;-73
2022/04/08 09:07:57;;;;;;;;;8.60;8.20;;;;;17.19;38.93;98535.19;5045546;28;8849;-72
2022/04/08 09:10:29;;;;;;;;;4.00;4.00;;;;;16.81;39.64;98533.25;5032103;28;8847;-74
2022/04/08 09:13:00;;;;;;;;;8.60;8.40;;;;;16.71;40.01;98529.28;5036468;28;8881;-72
2022/04/08 09:15:30;;;;;;;;;8.00;8.00;;;;;17.07;39.61;98528.66;5027965;28;8864;-72
2022/04/08 09:18:10;;;;;;;;;8.60;8.60;;;;;17.11;39.17;98539.00;5032053;28;9392;-73
2022/04/08 09:20:40;;;;;;;;;7.80;7.80;;;;;16.92;39.30;98533.69;5026297;28;8903;-72
2022/04/08 09:23:10;;;;;;;;;8.20;7.00;;;;;16.81;39.99;98524.50;5012231;28;8905;-73
2022/04/08 09:25:40;;;;;;;;;10.00;7.80;;;;;16.93;39.86;98526.63;5029170;28;8833;-74
2022/04/08 09:28:12;;;;;;;;;8.60;8.60;;;;;17.10;39.75;98531.16;5046439;28;8876;-70
2022/04/08 09:30:41;;;;;;;;;9.80;8.40;;;;;17.14;39.28;98531.00;5045794;28;8880;-73
2022/04/08 09:33:16;;;;;;;;;14.20;12.60;;;;;17.62;38.54;98526.22;5042188;28;8852;-73
2022/04/08 09:35:45;;;;;;;;;7.80;7.80;;;;;17.88;38.46;98527.69;5028412;28;8875;-73
2022/04/08 09:38:19;;;;;;;;;9.00;8.40;;;;;18.51;37.51;98534.38;5043942;28;8886;-73
2022/04/08 09:40:49;;;;;;;;;11.80;10.00;;;;;18.62;36.94;98533.81;5041647;28;8871;-74
2022/04/08 09:43:18;;;;;;;;;8.20;8.20;;;;;18.41;37.17;98533.97;5016615;28;8877;-74
2022/04/08 09:45:47;;;;;;;;;9.40;9.40;;;;;18.25;37.96;98540.91;5045981;28;8857;-72
2022/04/08 09:48:16;;;;;;;;;9.80;9.60;;;;;18.26;37.33;98534.69;5041580;28;8894;-75
2022/04/08 09:50:50;;;;;;;;;8.40;8.20;;;;;18.31;37.03;98527.41;5044595;28;8915;-73
2022/04/08 09:53:20;;;;;;;;;9.20;9.20;;;;;18.28;37.33;98535.50;5013283;28;9006;-71
2022/04/08 09:55:51;;;;;;;;;10.20;8.60;;;;;18.60;36.54;98530.41;5032238;28;8867;-73
2022/04/08 09:58:21;;;;;;;;;11.00;10.60;;;;;18.31;37.02;98536.19;5000223;28;8990;-73
2022/04/08 10:00:51;;;;;;;;;10.40;9.40;;;;;18.65;36.73;98528.38;5048553;28;8868;-76
2022/04/08 10:03:21;;;;;;;;;8.60;8.60;;;;;18.97;36.58;98520.66;5050254;28;8861;-75
2022/04/08 10:05:50;;;;;;;;;11.40;10.40;;;;;18.74;36.15;98524.44;5050687;28;8946;-73
2022/04/08 10:08:19;;;;;;;;;11.40;11.40;;;;;18.58;36.55;98522.56;5047598;28;8849;-73
2022/04/08 10:10:57;;;;;;;;;5.80;5.80;;;;;18.01;36.25;98512.13;5030375;28;8898;-72
2022/04/08 10:13:38;;;;;;;;;7.00;7.00;;;;;18.56;36.43;98513.00;5044500;28;8891;-73
2022/04/08 10:16:15;;;;;;;;;8.80;7.60;;;;;18.44;35.93;98510.03;5047624;28;8859;-75
2022/04/08 10:18:46;;;;;;;;;7.00;7.00;;;;;18.12;36.69;98501.91;5050089;28;8980;-73
2022/04/08 10:21:15;;;;;;;;;10.00;9.00;;;;;18.34;36.77;98505.31;5048760;28;8864;-71
2022/04/08 10:23:49;;;;;;;;;9.40;8.80;;;;;18.55;37.16;98498.09;5017863;28;8840;-73
2022/04/08 10:26:21;;;;;;;;;9.40;8.80;;;;;18.93;37.33;98493.53;5050928;28;8833;-71
2022/04/08 10:28:52;;;;;;;;;10.20;10.00;;;;;19.50;36.79;98489.69;5044154;28;9716;-73
2022/04/08 10:31:23;;;;;;;;;9.00;8.40;;;;;19.45;35.35;98493.44;5039281;28;8867;-76
2022/04/08 10:33:57;;;;;;;;;9.80;8.40;;;;;18.93;36.27;98497.97;5029922;28;8853;-75
2022/04/08 10:36:34;;;;;;;;;8.20;8.20;;;;;19.09;36.56;98494.47;5030198;28;8931;-72
2022/04/08 10:39:13;;;;;;;;;11.40;11.40;;;;;19.44;35.76;98486.44;5047512;28;8868;-74
2022/04/08 10:41:48;;;;;;;;;9.40;8.40;;;;;19.11;36.19;98493.50;5035843;28;8911;-75
2022/04/08 10:44:17;;;;;;;;;6.80;6.00;;;;;18.68;36.85;98489.47;5044131;28;8837;-74
2022/04/08 10:46:53;;;;;;;;;9.60;7.40;;;;;18.37;37.85;98491.94;5047166;28;8868;-73
2022/04/08 10:49:21;;;;;;;;;8.20;8.20;;;;;18.33;38.34;98488.59;5027119;28;8860;-72
2022/04/08 10:51:51;;;;;;;;;8.00;7.00;;;;;18.47;37.80;98499.34;5039544;28;8925;-70
2022/04/08 10:54:20;;;;;;;;;9.80;9.60;;;;;18.45;38.30;98489.75;5025798;28;8934;-74
2022/04/08 10:56:59;;;;;;;;;10.20;9.60;;;;;18.45;38.61;98476.56;5022936;28;8864;-72
2022/04/08 10:59:29;;;;;;;;;11.60;9.80;;;;;19.01;38.16;98472.84;5024813;28;8871;-71
2022/04/08 11:02:02;;;;;;;;;12.20;11.80;;;;;19.09;38.24;98472.44;5010501;28;8841;-76
2022/04/08 11:04:31;;;;;;;;;10.80;10.20;;;;;19.47;37.56;98467.78;5014466;28;8847;-73
2022/04/08 11:07:05;;;;;;;;;13.20;12.20;;;;;19.43;36.35;98471.53;5026918;28;8901;-73
2022/04/08 11:09:34;;;;;;;;;10.60;9.20;;;;;19.46;36.36;98468.69;5036461;28;8852;-74
2022/04/08 11:12:05;;;;;;;;;8.60;6.00;;;;;19.00;36.91;98465.88;5030188;28;8919;-71
2022/04/08 11:14:34;;;;;;;;;9.20;8.40;;;;;19.02;37.66;98456.06;5029860;28;8854;-72
2022/04/08 11:17:03;;;;;;;;;8.60;8.60;;;;;18.84;37.96;98463.16;5030343;28;8895;-72
2022/04/08 11:19:33;;;;;;;;;7.80;7.80;;;;;18.92;38.10;98456.63;5049464;28;8958;-72
2022/04/08 11:22:11;;;;;;;;;10.00;9.00;;;;;19.47;38.13;98432.56;5024127;28;8978;-73
2022/04/08 11:24:41;;;;;;;;;8.60;8.00;;;;;19.85;36.67;98442.81;5045734;28;8873;-72
2022/04/08 11:27:11;;;;;;;;;12.00;10.40;;;;;19.70;37.05;98435.69;5047316;28;8999;-73
2022/04/08 11:29:40;;;;;;;;;10.00;9.60;;;;;19.68;37.53;98434.00;5031677;28;8869;-73
2022/04/08 11:32:11;;;;;;;;;10.40;9.80;;;;;20.29;36.37;98431.47;5048027;28;8869;-73
2022/04/08 11:34:40;;;;;;;;;14.00;11.40;;;;;20.81;35.76;98423.13;5049315;28;9696;-74
2022/04/08 11:37:09;;;;;;;;;12.80;11.80;;;;;21.30;35.58;98418.38;5048619;28;8857;-73
2022/04/08 11:39:40;;;;;;;;;13.40;12.00;;;;;21.79;35.16;98410.81;5048229;28;8869;-75
2022/04/08 11:42:09;;;;;;;;;12.40;11.40;;;;;22.27;34.34;98414.84;5044756;28;8993;-69